createdAt,value
2022-08-17T00:02:25.265Z,101255.28
2022-08-17T00:04:55.093Z,101250.53
2022-08-17T00:07:22.312Z,101243.75
2022-08-17T00:09:49.157Z,101245.13
2022-08-17T00:12:41.839Z,101235.28
2022-08-17T00:15:05.248Z,101225.03
2022-08-17T00:17:31.776Z,101225.72
2022-08-17T00:19:58.405Z,101230.03
2022-08-17T00:22:34.963Z,101224.69
2022-08-17T00:25:07.563Z,101231.31
2022-08-17T00:27:35.308Z,101223.19
2022-08-17T00:30:01.974Z,101226.16
2022-08-17T00:33:12.527Z,101224.06
2022-08-17T00:35:17.715Z,101223.44
2022-08-17T00:37:44.453Z,101218.66
2022-08-17T00:40:14.423Z,101219.72
2022-08-17T00:42:42.123Z,101216.50
2022-08-17T00:45:11.736Z,101223.06
2022-08-17T00:47:38.765Z,101217.38
2022-08-17T00:50:09.447Z,101212.47
2022-08-17T00:52:40.096Z,101216.88
2022-08-17T00:55:09.160Z,101207.25
2022-08-17T00:57:42.216Z,101208.03
2022-08-17T01:00:18.817Z,101211.22
2022-08-17T01:02:48.079Z,101198.44
2022-08-17T01:05:19.673Z,101194.59
2022-08-17T01:07:49.480Z,101196.97
2022-08-17T01:10:59.040Z,101192.31
2022-08-17T01:13:05.448Z,101181.84
2022-08-17T01:15:36.344Z,101182.88
2022-08-17T01:18:05.452Z,101190.25
2022-08-17T01:20:48.304Z,101185.50
2022-08-17T01:23:20.560Z,101185.09
2022-08-17T01:25:58.162Z,101183.97
2022-08-17T01:28:52.526Z,101173.91
2022-08-17T01:31:16.698Z,101178.97
2022-08-17T01:33:43.504Z,101180.88
2022-08-17T01:36:10.518Z,101184.75
2022-08-17T01:38:38.294Z,101185.16
2022-08-17T01:41:12.518Z,101184.81
2022-08-17T01:43:49.204Z,101183.66
2022-08-17T01:46:21.919Z,101172.81
2022-08-17T01:48:48.907Z,101174.75
2022-08-17T01:51:16.025Z,101172.06
2022-08-17T01:53:47.480Z,101180.53
2022-08-17T01:56:17.992Z,101176.97
2022-08-17T01:58:44.685Z,101179.97
2022-08-17T02:01:12.479Z,101173.31
2022-08-17T02:03:39.151Z,101172.91
2022-08-17T02:06:12.000Z,101168.97
2022-08-17T02:09:01.932Z,101175.16
2022-08-17T02:11:32.304Z,101167.78
2022-08-17T02:14:02.982Z,101179.38
2022-08-17T02:16:37.744Z,101179.38
2022-08-17T02:19:12.512Z,101182.88
2022-08-17T02:21:41.561Z,101198.75
2022-08-17T02:24:13.316Z,101199.06
2022-08-17T02:26:39.883Z,101213.94
2022-08-17T02:29:07.490Z,101219.19
2022-08-17T02:31:35.504Z,101217.91
2022-08-17T02:34:04.723Z,101216.94
2022-08-17T02:36:34.504Z,101218.44
2022-08-17T02:39:03.430Z,101234.25
2022-08-17T02:41:30.460Z,101229.47
2022-08-17T02:43:57.184Z,101227.97
2022-08-17T02:46:23.814Z,101237.59
2022-08-17T02:48:50.346Z,101237.16
2022-08-17T02:51:17.188Z,101234.69
2022-08-17T02:53:44.009Z,101220.72
2022-08-17T02:56:10.738Z,101219.53
2022-08-17T02:58:37.308Z,101214.00
2022-08-17T03:01:06.013Z,101217.03
2022-08-17T03:03:33.074Z,101212.34
2022-08-17T03:05:59.964Z,101217.66
2022-08-17T03:08:27.231Z,101219.16
2022-08-17T03:10:54.083Z,101214.53
2022-08-17T03:13:20.911Z,101208.06
2022-08-17T03:15:48.783Z,101199.69
2022-08-17T03:18:25.558Z,101189.22
2022-08-17T03:21:00.813Z,101190.88
2022-08-17T03:23:29.734Z,101191.41
2022-08-17T03:25:57.273Z,101184.50
2022-08-17T03:28:24.770Z,101185.75
2022-08-17T03:30:52.260Z,101187.28
2022-08-17T03:33:19.938Z,101192.78
2022-08-17T03:35:47.194Z,101185.88
2022-08-17T03:38:17.404Z,101193.66
2022-08-17T03:40:56.569Z,101182.31
2022-08-17T03:43:30.175Z,101185.31
2022-08-17T03:46:28.233Z,101193.69
2022-08-17T03:49:20.502Z,101204.84
2022-08-17T03:52:05.720Z,101212.19
2022-08-17T03:54:50.637Z,101225.28
2022-08-17T03:57:17.963Z,101231.84
2022-08-17T03:59:45.316Z,101238.69
2022-08-17T04:02:18.948Z,101233.97
2022-08-17T04:04:45.560Z,101227.59
2022-08-17T04:07:12.544Z,101227.53
2022-08-17T04:09:39.032Z,101223.53
2022-08-17T04:12:06.047Z,101235.03
2022-08-17T04:14:51.712Z,101230.31
2022-08-17T04:17:20.491Z,101229.09
2022-08-17T04:19:47.127Z,101241.03
2022-08-17T04:22:31.159Z,101237.91
2022-08-17T04:25:01.515Z,101242.09
2022-08-17T04:27:28.028Z,101239.28
2022-08-17T04:29:55.980Z,101242.34
2022-08-17T04:33:00.490Z,101247.31
2022-08-17T04:35:09.815Z,101251.94
2022-08-17T04:37:36.386Z,101251.38
2022-08-17T04:40:22.148Z,101239.25
2022-08-17T04:43:07.287Z,101239.53
2022-08-17T04:45:38.119Z,101238.66
2022-08-17T04:48:04.817Z,101241.25
2022-08-17T04:50:31.316Z,101236.19
2022-08-17T04:52:58.121Z,101228.00
2022-08-17T04:55:24.992Z,101233.28
2022-08-17T04:57:51.578Z,101231.75
2022-08-17T05:00:18.884Z,101230.94
2022-08-17T05:02:49.930Z,101227.78
2022-08-17T05:05:24.861Z,101224.31
2022-08-17T05:07:54.412Z,101229.72
2022-08-17T05:10:23.206Z,101237.03
2022-08-17T05:13:05.230Z,101237.03
2022-08-17T05:15:33.191Z,101241.53
2022-08-17T05:18:03.260Z,101240.09
2022-08-17T05:20:30.170Z,101236.84
2022-08-17T05:23:00.334Z,101231.88
2022-08-17T05:25:31.631Z,101228.84
2022-08-17T05:28:02.209Z,101232.00
2022-08-17T05:30:28.978Z,101233.13
2022-08-17T05:33:13.636Z,101231.09
2022-08-17T05:35:44.402Z,101228.06
2022-08-17T05:38:11.414Z,101223.44
2022-08-17T05:40:38.350Z,101224.91
2022-08-17T05:43:08.365Z,101226.41
2022-08-17T05:45:55.809Z,101233.69
2022-08-17T05:48:35.506Z,101228.66
2022-08-17T05:51:28.321Z,101226.19
2022-08-17T05:54:26.068Z,101223.41
2022-08-17T05:57:06.299Z,101220.16
2022-08-17T05:59:44.972Z,101221.25
2022-08-17T06:02:27.086Z,101215.97
2022-08-17T06:04:56.224Z,101208.31
2022-08-17T06:07:49.793Z,101203.69
2022-08-17T06:10:43.925Z,101207.53
2022-08-17T06:13:28.842Z,101206.41
2022-08-17T06:15:56.100Z,101218.91
2022-08-17T06:18:28.616Z,101222.22
2022-08-17T06:21:00.417Z,101221.97
2022-08-17T06:23:32.440Z,101235.25
2022-08-17T06:26:06.031Z,101236.56
2022-08-17T06:28:51.697Z,101230.94
2022-08-17T06:31:29.213Z,101225.09
2022-08-17T06:33:58.214Z,101237.91
2022-08-17T06:36:42.078Z,101251.53
2022-08-17T06:39:27.121Z,101250.84
2022-08-17T06:41:59.469Z,101256.25
2022-08-17T06:44:42.258Z,101263.56
2022-08-17T06:47:40.846Z,101263.19
2022-08-17T06:50:27.410Z,101264.44
2022-08-17T06:53:20.936Z,101271.06
2022-08-17T06:56:03.948Z,101268.81
2022-08-17T06:58:33.218Z,101257.66
2022-08-17T07:01:13.013Z,101268.47
2022-08-17T07:03:45.524Z,101273.50
2022-08-17T07:06:18.487Z,101268.53
2022-08-17T07:09:06.293Z,101270.91
2022-08-17T07:11:48.764Z,101266.28
2022-08-17T07:14:53.498Z,101267.09
2022-08-17T07:17:22.402Z,101268.31
2022-08-17T07:20:16.206Z,101270.75
2022-08-17T07:23:08.662Z,101281.56
2022-08-17T07:25:36.499Z,101269.97
2022-08-17T07:28:07.097Z,101279.66
2022-08-17T07:30:49.011Z,101279.75
2022-08-17T07:33:23.783Z,101287.06
2022-08-17T07:35:51.105Z,101290.13
2022-08-17T07:38:28.507Z,101290.56
2022-08-17T07:40:57.555Z,101285.50
2022-08-17T07:43:29.607Z,101286.66
2022-08-17T07:46:35.449Z,101282.63
2022-08-17T07:49:06.713Z,101281.34
2022-08-17T07:51:53.480Z,101284.16
2022-08-17T07:54:31.650Z,101283.72
2022-08-17T07:57:13.487Z,101284.50
2022-08-17T07:59:43.403Z,101291.91
2022-08-17T08:02:33.741Z,101288.09
2022-08-17T08:05:46.654Z,101296.19
2022-08-17T08:08:30.846Z,101296.19
2022-08-17T08:11:11.357Z,101300.91
2022-08-17T08:13:47.209Z,101305.63
2022-08-17T08:16:16.892Z,101299.91
2022-08-17T08:18:55.827Z,101308.09
2022-08-17T08:21:53.601Z,101310.19
2022-08-17T08:24:43.761Z,101318.88
2022-08-17T08:27:37.628Z,101321.34
2022-08-17T08:30:10.747Z,101322.22
2022-08-17T08:32:57.559Z,101325.41
2022-08-17T08:35:50.193Z,101335.84
2022-08-17T08:38:26.760Z,101339.88
2022-08-17T08:41:37.014Z,101334.59
2022-08-17T08:45:00.821Z,101350.66
2022-08-17T08:47:35.513Z,101367.16
2022-08-17T08:50:08.177Z,101356.91
2022-08-17T08:53:21.338Z,101349.78
2022-08-17T08:55:51.811Z,101344.63
2022-08-17T08:58:44.678Z,101334.75
2022-08-17T09:01:40.245Z,101327.00
2022-08-17T09:04:27.451Z,101319.81
2022-08-17T09:07:34.882Z,101319.81
2022-08-17T09:10:15.184Z,101321.72
2022-08-17T09:12:57.112Z,101323.78
2022-08-17T09:15:37.977Z,101335.38
2022-08-17T09:19:01.661Z,101349.31
2022-08-17T09:21:10.655Z,101371.16
2022-08-17T09:24:15.658Z,101409.19
2022-08-17T09:27:03.105Z,101456.47
2022-08-17T09:29:35.096Z,101467.41
2022-08-17T09:32:09.672Z,101451.31
2022-08-17T09:37:56.938Z,101430.19
2022-08-17T09:40:37.709Z,101377.75
2022-08-17T09:43:30.725Z,101318.75
2022-08-17T09:46:16.825Z,101297.38
2022-08-17T09:48:57.667Z,101304.91
2022-08-17T09:51:36.179Z,101299.88
2022-08-17T09:54:36.957Z,101289.28
2022-08-17T09:57:32.382Z,101283.28
2022-08-17T10:00:17.992Z,101293.53
2022-08-17T10:03:18.234Z,101300.88
2022-08-17T10:05:57.723Z,101314.88
2022-08-17T10:08:48.205Z,101326.81
2022-08-17T10:11:52.176Z,101322.94
2022-08-17T10:14:44.110Z,101316.91
2022-08-17T10:17:24.476Z,101311.31
2022-08-17T10:20:19.793Z,101312.53
2022-08-17T10:23:24.313Z,101321.16
2022-08-17T10:26:20.589Z,101329.69
2022-08-17T10:28:59.106Z,101329.66
2022-08-17T10:31:36.254Z,101330.56
2022-08-17T10:34:03.079Z,101331.78
2022-08-17T10:36:46.214Z,101335.75
2022-08-17T10:39:26.769Z,101332.81
2022-08-17T10:42:00.834Z,101334.84
2022-08-17T10:44:48.482Z,101338.06
2022-08-17T10:47:17.631Z,101346.75
2022-08-17T10:49:53.893Z,101340.28
2022-08-17T10:52:20.929Z,101347.13
2022-08-17T10:54:57.922Z,101357.94
2022-08-17T10:57:34.323Z,101350.38
2022-08-17T11:00:42.843Z,101350.03
2022-08-17T11:03:21.127Z,101358.13
2022-08-17T11:05:55.749Z,101355.97
2022-08-17T11:08:40.711Z,101365.06
2022-08-17T11:11:35.882Z,101380.25
2022-08-17T11:14:33.010Z,101411.00
2022-08-17T11:17:24.091Z,101427.75
2022-08-17T11:20:04.795Z,101430.22
2022-08-17T11:22:49.766Z,101437.19
2022-08-17T11:25:20.592Z,101441.09
2022-08-17T11:27:53.950Z,101451.59
2022-08-17T11:30:50.908Z,101442.59
2022-08-17T11:33:29.662Z,101435.53
2022-08-17T11:36:29.445Z,101429.22
2022-08-17T11:39:25.094Z,101410.69
2022-08-17T11:42:08.863Z,101418.41
2022-08-17T11:44:52.224Z,101410.78
2022-08-17T11:48:16.042Z,101411.59
2022-08-17T11:51:06.148Z,101411.63
2022-08-17T11:53:38.809Z,101410.56
2022-08-17T11:56:29.007Z,101418.59
2022-08-17T11:58:56.160Z,101425.00
2022-08-17T12:01:56.605Z,101429.72
2022-08-17T12:04:34.185Z,101430.75
2022-08-17T12:07:10.584Z,101419.38
2022-08-17T12:09:45.578Z,101423.88
2022-08-17T12:12:29.750Z,101409.47
2022-08-17T12:15:10.146Z,101404.31
2022-08-17T12:17:41.162Z,101402.53
2022-08-17T12:20:15.589Z,101408.47
2022-08-17T12:23:01.169Z,101409.03
2022-08-17T12:25:37.950Z,101403.97
2022-08-17T12:28:20.052Z,101408.25
2022-08-17T12:30:52.164Z,101411.72
2022-08-17T12:33:24.982Z,101401.63
2022-08-17T12:36:03.251Z,101400.03
2022-08-17T12:38:35.017Z,101391.94
2022-08-17T12:41:22.494Z,101393.50
2022-08-17T12:44:26.110Z,101395.06
2022-08-17T12:47:18.079Z,101401.72
2022-08-17T12:49:51.571Z,101395.53
2022-08-17T12:52:33.031Z,101387.44
2022-08-17T12:55:05.664Z,101381.38
2022-08-17T12:57:37.995Z,101375.16
2022-08-17T13:00:11.517Z,101381.81
2022-08-17T13:02:49.310Z,101392.72
2022-08-17T13:05:26.165Z,101394.41
2022-08-17T13:07:55.861Z,101403.41
2022-08-17T13:10:33.093Z,101410.06
2022-08-17T13:13:06.040Z,101413.53
2022-08-17T13:15:45.091Z,101412.50
2022-08-17T13:18:39.401Z,101408.38
2022-08-17T13:21:12.523Z,101406.78
2022-08-17T13:23:39.247Z,101412.63
2022-08-17T13:26:16.464Z,101412.63
2022-08-17T13:28:50.122Z,101403.06
2022-08-17T13:31:28.480Z,101403.38
2022-08-17T13:34:26.929Z,101398.69
2022-08-17T13:37:17.814Z,101400.59
2022-08-17T13:39:48.437Z,101402.53
2022-08-17T13:42:53.576Z,101400.59
2022-08-17T13:45:36.156Z,101387.88
2022-08-17T13:48:13.761Z,101384.84
2022-08-17T13:50:46.765Z,101385.63
2022-08-17T13:53:20.608Z,101387.53
2022-08-17T13:55:53.002Z,101388.78
2022-08-17T13:58:27.759Z,101389.56
2022-08-17T14:00:56.269Z,101383.81
2022-08-17T14:03:24.935Z,101376.16
2022-08-17T14:05:52.991Z,101378.53
2022-08-17T14:08:20.773Z,101374.25
2022-08-17T14:10:57.849Z,101365.47
2022-08-17T14:13:24.494Z,101375.59
2022-08-17T14:15:56.364Z,101361.41
2022-08-17T14:18:49.826Z,101362.66
2022-08-17T14:21:10.377Z,101358.47
2022-08-17T14:23:37.213Z,101358.13
2022-08-17T14:26:04.280Z,101353.97
2022-08-17T14:28:32.205Z,101350.63
2022-08-17T14:31:00.731Z,101354.09
2022-08-17T14:33:29.589Z,101349.91
2022-08-17T14:35:57.714Z,101350.81
2022-08-17T14:38:24.890Z,101338.84
2022-08-17T14:40:51.798Z,101339.75
2022-08-17T14:43:18.813Z,101335.94
2022-08-17T14:45:45.551Z,101335.22
2022-08-17T14:48:12.109Z,101330.72
2022-08-17T14:50:42.457Z,101333.84
2022-08-17T14:53:11.948Z,101329.69
2022-08-17T14:55:40.015Z,101328.22
2022-08-17T14:58:07.837Z,101332.47
2022-08-17T15:00:34.985Z,101330.22
2022-08-17T15:03:02.209Z,101326.84
2022-08-17T15:05:33.514Z,101330.44
2022-08-17T15:08:02.353Z,101328.50
2022-08-17T15:10:29.884Z,101331.66
2022-08-17T15:12:57.406Z,101329.81
2022-08-17T15:15:24.319Z,101328.69
2022-08-17T15:17:51.580Z,101317.97
2022-08-17T15:20:21.092Z,101326.06
2022-08-17T15:22:49.826Z,101326.06
2022-08-17T15:25:18.042Z,101330.38
2022-08-17T15:27:44.846Z,101335.78
2022-08-17T15:30:12.054Z,101329.22
2022-08-17T15:32:40.863Z,101336.66
2022-08-17T15:35:13.119Z,101332.47
2022-08-17T15:37:40.405Z,101332.13
2022-08-17T15:40:08.412Z,101338.41
2022-08-17T15:42:36.659Z,101337.38
2022-08-17T15:45:10.413Z,101342.44
2022-08-17T15:47:37.882Z,101340.97
2022-08-17T15:50:06.717Z,101341.41
2022-08-17T15:52:40.264Z,101336.06
2022-08-17T15:55:11.215Z,101344.63
2022-08-17T15:57:38.027Z,101340.47
2022-08-17T16:00:07.394Z,101335.06
2022-08-17T16:03:45.398Z,101340.91
2022-08-17T16:05:27.147Z,101346.84
2022-08-17T16:07:55.271Z,101344.22
2022-08-17T16:10:22.861Z,101343.88
2022-08-17T16:13:02.011Z,101338.56
2022-08-17T16:15:31.058Z,101349.72
2022-08-17T16:17:57.586Z,101345.09
2022-08-17T16:20:24.422Z,101347.03
2022-08-17T16:22:51.517Z,101330.44
2022-08-17T16:25:22.113Z,101341.34
2022-08-17T16:27:53.532Z,101343.38
2022-08-17T16:30:23.638Z,101354.97
2022-08-17T16:32:51.725Z,101345.34
2022-08-17T16:35:21.288Z,101348.84
2022-08-17T16:37:48.586Z,101344.69
2022-08-17T16:40:16.681Z,101345.88
2022-08-17T16:42:45.833Z,101354.44
2022-08-17T16:45:16.729Z,101354.53
2022-08-17T16:47:43.612Z,101352.28
2022-08-17T16:50:14.353Z,101343.78
2022-08-17T16:52:41.810Z,101346.47
2022-08-17T16:55:10.561Z,101355.41
2022-08-17T16:57:47.202Z,101363.97
2022-08-17T17:00:17.968Z,101372.09
2022-08-17T17:02:47.481Z,101369.38
2022-08-17T17:05:33.036Z,101361.59
2022-08-17T17:08:13.408Z,101356.97
2022-08-17T17:10:44.661Z,101355.03
2022-08-17T17:13:24.601Z,101348.84
2022-08-17T17:15:57.603Z,101352.34
2022-08-17T17:18:37.527Z,101349.63
2022-08-17T17:21:06.303Z,101344.22
2022-08-17T17:23:54.572Z,101344.59
2022-08-17T17:26:58.967Z,101349.56
2022-08-17T17:29:49.692Z,101357.69
2022-08-17T17:32:31.153Z,101364.22
2022-08-17T17:35:04.691Z,101366.16
2022-08-17T17:37:35.182Z,101360.72
2022-08-17T17:40:13.107Z,101359.94
2022-08-17T17:42:42.772Z,101361.84
2022-08-17T17:45:15.208Z,101364.13
2022-08-17T17:47:41.736Z,101374.50
2022-08-17T17:50:08.908Z,101375.66
2022-08-17T17:52:47.537Z,101374.44
2022-08-17T17:55:22.970Z,101376.34
2022-08-17T17:58:17.213Z,101374.00
2022-08-17T18:01:08.459Z,101379.75
2022-08-17T18:03:40.749Z,101375.47
2022-08-17T18:06:21.441Z,101380.88
2022-08-17T18:09:19.470Z,101380.88
2022-08-17T18:12:08.765Z,101378.88
2022-08-17T18:15:04.204Z,101378.44
2022-08-17T18:17:31.013Z,101386.56
2022-08-17T18:19:57.526Z,101386.03
2022-08-17T18:22:24.862Z,101389.44
2022-08-17T18:24:56.497Z,101387.84
2022-08-17T18:27:38.815Z,101393.19
2022-08-17T18:30:14.411Z,101395.03
2022-08-17T18:32:43.573Z,101402.25
2022-08-17T18:35:10.184Z,101407.19
2022-08-17T18:37:57.579Z,101412.50
2022-08-17T18:40:30.211Z,101419.28
2022-08-17T18:43:26.890Z,101415.25
2022-08-17T18:45:56.150Z,101416.75
2022-08-17T18:48:26.989Z,101408.97
2022-08-17T18:51:00.393Z,101410.00
2022-08-17T18:53:34.182Z,101407.09
2022-08-17T18:56:20.127Z,101412.31
2022-08-17T18:59:05.569Z,101405.56
2022-08-17T19:02:16.004Z,101403.47
2022-08-17T19:05:00.944Z,101408.75
2022-08-17T19:07:33.663Z,101412.47
2022-08-17T19:10:09.290Z,101406.06
2022-08-17T19:13:00.885Z,101417.91
2022-08-17T19:15:37.953Z,101418.16
2022-08-17T19:18:22.867Z,101421.53
2022-08-17T19:21:07.306Z,101428.53
2022-08-17T19:23:54.094Z,101435.81
2022-08-17T19:26:50.741Z,101440.44
2022-08-17T19:29:25.665Z,101455.38
2022-08-17T19:31:57.625Z,101461.44
2022-08-17T19:34:33.454Z,101461.81
2022-08-17T19:37:20.931Z,101466.41
2022-08-17T19:40:24.442Z,101465.19
2022-08-17T19:43:04.113Z,101465.50
2022-08-17T19:45:49.245Z,101478.22
2022-08-17T19:48:35.512Z,101478.56
2022-08-17T19:51:09.857Z,101485.09
2022-08-17T19:54:04.922Z,101487.34
2022-08-17T19:57:01.559Z,101485.75
2022-08-17T19:59:53.730Z,101479.13
2022-08-17T20:02:47.859Z,101482.97
2022-08-17T20:05:23.970Z,101473.28
2022-08-17T20:07:58.067Z,101475.97
2022-08-17T20:10:54.854Z,101467.44
2022-08-17T20:13:33.371Z,101476.66
2022-08-17T20:16:01.314Z,101467.34
2022-08-17T20:18:36.916Z,101473.38
2022-08-17T20:21:20.282Z,101462.47
2022-08-17T20:24:04.333Z,101454.72
2022-08-17T20:26:58.670Z,101454.59
2022-08-17T20:30:07.260Z,101452.22
2022-08-17T20:32:53.198Z,101453.25
2022-08-17T20:35:36.470Z,101448.50
2022-08-17T20:38:12.814Z,101446.16
2022-08-17T20:40:57.433Z,101439.03
2022-08-17T20:43:32.780Z,101437.34
2022-08-17T20:46:02.367Z,101448.38
2022-08-17T20:48:38.425Z,101446.34
2022-08-17T20:51:22.561Z,101447.03
2022-08-17T20:53:54.946Z,101460.38
2022-08-17T20:56:43.781Z,101457.22
2022-08-17T20:59:30.420Z,101460.25
2022-08-17T21:02:18.534Z,101455.53
2022-08-17T21:04:52.303Z,101456.19
2022-08-17T21:07:29.791Z,101466.22
2022-08-17T21:10:28.081Z,101465.28
2022-08-17T21:13:13.510Z,101473.72
2022-08-17T21:15:48.538Z,101479.44
2022-08-17T21:18:34.033Z,101472.81
2022-08-17T21:21:17.803Z,101475.50
2022-08-17T21:24:09.528Z,101480.44
2022-08-17T21:27:12.395Z,101482.69
2022-08-17T21:30:10.291Z,101493.78
2022-08-17T21:32:41.795Z,101489.50
2022-08-17T21:35:11.429Z,101489.03
2022-08-17T21:37:42.117Z,101480.50
2022-08-17T21:40:18.005Z,101490.50
2022-08-17T21:42:48.897Z,101491.50
2022-08-17T21:45:24.416Z,101499.13
2022-08-17T21:48:09.005Z,101494.38
2022-08-17T21:50:36.200Z,101500.91
2022-08-17T21:53:06.355Z,101504.38
2022-08-17T21:55:36.185Z,101503.94
2022-08-17T21:58:14.178Z,101512.34
2022-08-17T22:00:42.467Z,101509.19
2022-08-17T22:03:24.067Z,101504.59
2022-08-17T22:05:51.563Z,101511.88
2022-08-17T22:08:21.999Z,101510.31
2022-08-17T22:10:51.292Z,101510.31
2022-08-17T22:13:17.938Z,101506.84
2022-08-17T22:15:48.013Z,101511.31
2022-08-17T22:18:21.427Z,101518.16
2022-08-17T22:20:53.735Z,101513.88
2022-08-17T22:23:51.680Z,101518.47
2022-08-17T22:26:21.671Z,101509.47
2022-08-17T22:28:54.300Z,101504.72
2022-08-17T22:31:24.190Z,101500.47
2022-08-17T22:34:12.291Z,101500.47
2022-08-17T22:36:41.807Z,101509.19
2022-08-17T22:39:11.155Z,101507.16
2022-08-17T22:41:41.228Z,101512.53
2022-08-17T22:44:20.800Z,101515.56
2022-08-17T22:46:56.217Z,101510.50
2022-08-17T22:49:29.115Z,101514.00
2022-08-17T22:52:03.722Z,101512.09
2022-08-17T22:54:49.775Z,101514.00
2022-08-17T22:57:36.288Z,101520.81
2022-08-17T23:00:04.872Z,101526.19
2022-08-17T23:02:34.931Z,101533.81
2022-08-17T23:05:13.125Z,101534.97
2022-08-17T23:07:40.637Z,101530.81
2022-08-17T23:10:09.612Z,101523.50
2022-08-17T23:12:39.869Z,101534.28
2022-08-17T23:15:14.349Z,101530.34
2022-08-17T23:17:41.993Z,101537.19
2022-08-17T23:20:14.280Z,101535.63
2022-08-17T23:22:51.203Z,101530.56
2022-08-17T23:25:29.564Z,101528.03
2022-08-17T23:27:58.509Z,101537.25
2022-08-17T23:30:25.734Z,101538.81
2022-08-17T23:32:54.309Z,101542.31
2022-08-17T23:35:40.335Z,101542.63
2022-08-17T23:38:09.027Z,101552.47
2022-08-17T23:40:35.858Z,101545.84
2022-08-17T23:43:17.622Z,101536.84
2022-08-17T23:45:54.806Z,101535.41
2022-08-17T23:48:27.832Z,101537.16
2022-08-17T23:51:09.148Z,101529.25
2022-08-17T23:53:37.615Z,101522.31
2022-08-17T23:56:09.278Z,101514.84
2022-08-17T23:58:38.972Z,101507.75
